Terminal Aerodrome Forecast
Issued by NWS

Home | Current Version | Previous Version | Graphics & Text | Print | Product List | Glossary On
Versions: 1 2 3 4 5 6 7 8 9 10 11 12 13 14 15 16 17 18
000
FTUS42 KMHX 201538 AAB
TAFPGV
TAF AMD
KPGV 201538Z 2016/2112 19005KT P6SM OVC006
     FM201700 20006KT P6SM BKN015
     FM201900 20008KT P6SM SCT050
     FM210400 19006KT 2SM BR SCT008
      AMD LTD TO CLD VIS AND WIND=

USA.gov is the U.S. government's official web portal to all federal, state and local government web resources and services.